aviador You're here:

KTUL Decoded Metar

TULSA in OK, USA
Report Time2017-09-22 10:53:00
UTC Time2017-09-22 11:35:17
Flight Rules vfr VFR
Wind160° at 08 kt
W.Decomp.*RWY 18: 7.2 kt HW 3.5 kt LCW
RWY 08: 2.2 kt HW 7.7 kt RCW
W.Rank160° ranks 3
Current wind is below 160° avg. (9.3)
Visibility9999 m
Phenomena:N/A
Clouds:N/A
Expected CloudBase > 1,200 ft AGL from Temp-Dew spread
CeilingNone
Temp24°C (ISA +10)
Dew Point21°C (83% RH)
QNH1014 hPa
Density Alt2,175 ft
Elevation679 ft
Report Wrong Elevation
Raw Report
KTUL 221053Z 16008KT 10SM CLR 24/21 A2993 RMK AO2 SLP126
T02390211=

Extra information for KTUL:More info

Metar Taf Metar & Taf Last 4 Metars F.Rules Stats Wind Profile Meteogram Temp Stats Airport Information Weather charts Add Link Nearby VenuesMetar ALERT Operation Metar Decoded Social comments

AIRNAV info for KTUL